sensor_id;sensor_type;location;lat;lon;timestamp;pressure;altitude;pressure_sealevel;temperature
58929;BMP180;44713;53.378;10.022;2023-05-07T00:00:43;101850.00;;;9.60
58929;BMP180;44713;53.378;10.022;2023-05-07T00:03:09;101847.00;;;9.60
58929;BMP180;44713;53.378;10.022;2023-05-07T00:05:34;101853.00;;;9.60
58929;BMP180;44713;53.378;10.022;2023-05-07T00:08:00;101860.00;;;9.60
58929;BMP180;44713;53.378;10.022;2023-05-07T00:10:25;101861.00;;;9.70
58929;BMP180;44713;53.378;10.022;2023-05-07T00:12:51;101856.00;;;9.70
58929;BMP180;44713;53.378;10.022;2023-05-07T00:15:16;101856.00;;;9.70
58929;BMP180;44713;53.378;10.022;2023-05-07T00:17:42;101859.00;;;9.70
58929;BMP180;44713;53.378;10.022;2023-05-07T00:20:07;101860.00;;;9.70
58929;BMP180;44713;53.378;10.022;2023-05-07T00:22:33;101858.00;;;9.70
58929;BMP180;44713;53.378;10.022;2023-05-07T00:24:58;101857.00;;;9.70
58929;BMP180;44713;53.378;10.022;2023-05-07T00:27:24;101854.00;;;9.70
58929;BMP180;44713;53.378;10.022;2023-05-07T00:29:51;101850.00;;;9.70
58929;BMP180;44713;53.378;10.022;2023-05-07T00:32:22;101856.00;;;9.70
58929;BMP180;44713;53.378;10.022;2023-05-07T00:34:47;101851.00;;;9.70
58929;BMP180;44713;53.378;10.022;2023-05-07T00:37:12;101845.00;;;9.70
58929;BMP180;44713;53.378;10.022;2023-05-07T00:39:38;101842.00;;;9.70
58929;BMP180;44713;53.378;10.022;2023-05-07T00:42:03;101844.00;;;9.70
58929;BMP180;44713;53.378;10.022;2023-05-07T00:44:29;101837.00;;;9.70
58929;BMP180;44713;53.378;10.022;2023-05-07T00:46:56;101834.00;;;9.70
58929;BMP180;44713;53.378;10.022;2023-05-07T00:49:28;101827.00;;;9.60
58929;BMP180;44713;53.378;10.022;2023-05-07T00:51:58;101827.00;;;9.60
58929;BMP180;44713;53.378;10.022;2023-05-07T00:54:25;101823.00;;;9.60
58929;BMP180;44713;53.378;10.022;2023-05-07T00:56:51;101831.00;;;9.50
58929;BMP180;44713;53.378;10.022;2023-05-07T00:59:17;101830.00;;;9.50
58929;BMP180;44713;53.378;10.022;2023-05-07T01:01:42;101825.00;;;9.50
58929;BMP180;44713;53.378;10.022;2023-05-07T01:04:08;101833.00;;;9.50
58929;BMP180;44713;53.378;10.022;2023-05-07T01:06:33;101823.00;;;9.40
58929;BMP180;44713;53.378;10.022;2023-05-07T01:08:59;101825.00;;;9.40
58929;BMP180;44713;53.378;10.022;2023-05-07T01:11:25;101824.00;;;9.40
58929;BMP180;44713;53.378;10.022;2023-05-07T01:13:51;101823.00;;;9.40
58929;BMP180;44713;53.378;10.022;2023-05-07T01:16:17;101823.00;;;9.40
58929;BMP180;44713;53.378;10.022;2023-05-07T01:18:42;101823.00;;;9.50
58929;BMP180;44713;53.378;10.022;2023-05-07T01:21:10;101828.00;;;9.50
58929;BMP180;44713;53.378;10.022;2023-05-07T01:23:37;101821.00;;;9.50
58929;BMP180;44713;53.378;10.022;2023-05-07T01:26:03;101826.00;;;9.50
58929;BMP180;44713;53.378;10.022;2023-05-07T01:28:30;101820.00;;;9.50
58929;BMP180;44713;53.378;10.022;2023-05-07T01:31:01;101810.00;;;9.50
58929;BMP180;44713;53.378;10.022;2023-05-07T01:33:30;101821.00;;;9.50
58929;BMP180;44713;53.378;10.022;2023-05-07T01:35:57;101811.00;;;9.50
58929;BMP180;44713;53.378;10.022;2023-05-07T01:38:26;101823.00;;;9.50
58929;BMP180;44713;53.378;10.022;2023-05-07T01:40:52;101827.00;;;9.60
58929;BMP180;44713;53.378;10.022;2023-05-07T01:43:18;101825.00;;;9.60
58929;BMP180;44713;53.378;10.022;2023-05-07T01:45:44;101824.00;;;9.60
58929;BMP180;44713;53.378;10.022;2023-05-07T01:48:11;101822.00;;;9.50
58929;BMP180;44713;53.378;10.022;2023-05-07T01:50:38;101829.00;;;9.50
58929;BMP180;44713;53.378;10.022;2023-05-07T01:53:03;101830.00;;;9.50
58929;BMP180;44713;53.378;10.022;2023-05-07T01:55:29;101834.00;;;9.50
58929;BMP180;44713;53.378;10.022;2023-05-07T01:57:54;101830.00;;;9.50
58929;BMP180;44713;53.378;10.022;2023-05-07T02:00:20;101842.00;;;9.50
58929;BMP180;44713;53.378;10.022;2023-05-07T02:02:45;101840.00;;;9.50
58929;BMP180;44713;53.378;10.022;2023-05-07T02:05:23;101844.00;;;9.60
58929;BMP180;44713;53.378;10.022;2023-05-07T02:07:56;101836.00;;;9.60
58929;BMP180;44713;53.378;10.022;2023-05-07T02:10:22;101842.00;;;9.60
58929;BMP180;44713;53.378;10.022;2023-05-07T02:12:47;101842.00;;;9.50
58929;BMP180;44713;53.378;10.022;2023-05-07T02:15:13;101848.00;;;9.50
58929;BMP180;44713;53.378;10.022;2023-05-07T02:17:58;101853.00;;;9.60
58929;BMP180;44713;53.378;10.022;2023-05-07T02:20:24;101852.00;;;9.50
58929;BMP180;44713;53.378;10.022;2023-05-07T02:22:49;101853.00;;;9.50
58929;BMP180;44713;53.378;10.022;2023-05-07T02:25:15;101859.00;;;9.60
58929;BMP180;44713;53.378;10.022;2023-05-07T02:27:40;101856.00;;;9.60
58929;BMP180;44713;53.378;10.022;2023-05-07T02:30:06;101857.00;;;9.60
58929;BMP180;44713;53.378;10.022;2023-05-07T02:32:32;101858.00;;;9.60
58929;BMP180;44713;53.378;10.022;2023-05-07T02:34:57;101845.00;;;9.50
58929;BMP180;44713;53.378;10.022;2023-05-07T02:37:22;101849.00;;;9.60
58929;BMP180;44713;53.378;10.022;2023-05-07T02:39:48;101851.00;;;9.70
58929;BMP180;44713;53.378;10.022;2023-05-07T02:42:13;101847.00;;;9.60
58929;BMP180;44713;53.378;10.022;2023-05-07T02:44:39;101849.00;;;9.60
58929;BMP180;44713;53.378;10.022;2023-05-07T02:47:04;101848.00;;;9.60
58929;BMP180;44713;53.378;10.022;2023-05-07T02:49:30;101849.00;;;9.60
58929;BMP180;44713;53.378;10.022;2023-05-07T02:51:56;101861.00;;;9.60
58929;BMP180;44713;53.378;10.022;2023-05-07T02:54:23;101858.00;;;9.60
58929;BMP180;44713;53.378;10.022;2023-05-07T02:56:49;101871.00;;;9.50
58929;BMP180;44713;53.378;10.022;2023-05-07T02:59:14;101870.00;;;9.50
58929;BMP180;44713;53.378;10.022;2023-05-07T03:01:41;101861.00;;;9.40
58929;BMP180;44713;53.378;10.022;2023-05-07T03:04:09;101870.00;;;9.40
58929;BMP180;44713;53.378;10.022;2023-05-07T03:06:35;101871.00;;;9.40
58929;BMP180;44713;53.378;10.022;2023-05-07T03:09:01;101871.00;;;9.40
58929;BMP180;44713;53.378;10.022;2023-05-07T03:11:27;101870.00;;;9.50
58929;BMP180;44713;53.378;10.022;2023-05-07T03:13:52;101872.00;;;9.50
58929;BMP180;44713;53.378;10.022;2023-05-07T03:16:19;101870.00;;;9.40
58929;BMP180;44713;53.378;10.022;2023-05-07T03:18:45;101863.00;;;9.40
58929;BMP180;44713;53.378;10.022;2023-05-07T03:21:10;101869.00;;;9.50
58929;BMP180;44713;53.378;10.022;2023-05-07T03:23:35;101870.00;;;9.60
58929;BMP180;44713;53.378;10.022;2023-05-07T03:26:01;101874.00;;;9.50
58929;BMP180;44713;53.378;10.022;2023-05-07T03:28:26;101874.00;;;9.40
58929;BMP180;44713;53.378;10.022;2023-05-07T03:30:57;101862.00;;;9.40
58929;BMP180;44713;53.378;10.022;2023-05-07T03:33:23;101858.00;;;9.40
58929;BMP180;44713;53.378;10.022;2023-05-07T03:35:48;101859.00;;;9.40
58929;BMP180;44713;53.378;10.022;2023-05-07T03:38:19;101861.00;;;9.50
58929;BMP180;44713;53.378;10.022;2023-05-07T03:40:44;101870.00;;;9.50
58929;BMP180;44713;53.378;10.022;2023-05-07T03:43:10;101870.00;;;9.40
58929;BMP180;44713;53.378;10.022;2023-05-07T03:45:38;101863.00;;;9.30
58929;BMP180;44713;53.378;10.022;2023-05-07T03:48:14;101860.00;;;9.30
58929;BMP180;44713;53.378;10.022;2023-05-07T03:50:40;101869.00;;;9.30
58929;BMP180;44713;53.378;10.022;2023-05-07T03:53:06;101859.00;;;9.40
58929;BMP180;44713;53.378;10.022;2023-05-07T03:55:36;101875.00;;;9.40
58929;BMP180;44713;53.378;10.022;2023-05-07T03:58:01;101874.00;;;9.40
58929;BMP180;44713;53.378;10.022;2023-05-07T04:00:27;101863.00;;;9.30
58929;BMP180;44713;53.378;10.022;2023-05-07T04:02:57;101865.00;;;9.30
58929;BMP180;44713;53.378;10.022;2023-05-07T04:05:25;101875.00;;;9.40
58929;BMP180;44713;53.378;10.022;2023-05-07T04:07:58;101869.00;;;9.30
58929;BMP180;44713;53.378;10.022;2023-05-07T04:10:29;101872.00;;;9.40
58929;BMP180;44713;53.378;10.022;2023-05-07T04:12:56;101870.00;;;9.30
58929;BMP180;44713;53.378;10.022;2023-05-07T04:15:23;101880.00;;;9.40
58929;BMP180;44713;53.378;10.022;2023-05-07T04:17:49;101882.00;;;9.40
58929;BMP180;44713;53.378;10.022;2023-05-07T04:20:17;101887.00;;;9.50
58929;BMP180;44713;53.378;10.022;2023-05-07T04:22:45;101881.00;;;9.60
58929;BMP180;44713;53.378;10.022;2023-05-07T04:25:10;101881.00;;;9.60
58929;BMP180;44713;53.378;10.022;2023-05-07T04:27:36;101880.00;;;9.50
58929;BMP180;44713;53.378;10.022;2023-05-07T04:30:03;101885.00;;;9.50
58929;BMP180;44713;53.378;10.022;2023-05-07T04:32:33;101875.00;;;9.50
58929;BMP180;44713;53.378;10.022;2023-05-07T04:34:59;101877.00;;;9.60
58929;BMP180;44713;53.378;10.022;2023-05-07T04:37:25;101872.00;;;9.50
58929;BMP180;44713;53.378;10.022;2023-05-07T04:39:52;101881.00;;;9.50
58929;BMP180;44713;53.378;10.022;2023-05-07T04:42:17;101883.00;;;9.50
58929;BMP180;44713;53.378;10.022;2023-05-07T04:44:44;101880.00;;;9.60
58929;BMP180;44713;53.378;10.022;2023-05-07T04:47:10;101881.00;;;9.60
58929;BMP180;44713;53.378;10.022;2023-05-07T04:49:37;101878.00;;;9.60
58929;BMP180;44713;53.378;10.022;2023-05-07T04:52:03;101890.00;;;9.60
58929;BMP180;44713;53.378;10.022;2023-05-07T04:54:28;101877.00;;;9.60
58929;BMP180;44713;53.378;10.022;2023-05-07T04:56:55;101877.00;;;9.60
58929;BMP180;44713;53.378;10.022;2023-05-07T04:59:21;101887.00;;;9.70
58929;BMP180;44713;53.378;10.022;2023-05-07T05:01:46;101890.00;;;9.70
58929;BMP180;44713;53.378;10.022;2023-05-07T05:04:12;101890.00;;;9.70
58929;BMP180;44713;53.378;10.022;2023-05-07T05:06:39;101888.00;;;9.60
58929;BMP180;44713;53.378;10.022;2023-05-07T05:09:06;101898.00;;;9.60
58929;BMP180;44713;53.378;10.022;2023-05-07T05:11:32;101896.00;;;9.70
58929;BMP180;44713;53.378;10.022;2023-05-07T05:13:59;101889.00;;;9.60
58929;BMP180;44713;53.378;10.022;2023-05-07T05:16:24;101897.00;;;9.70
58929;BMP180;44713;53.378;10.022;2023-05-07T05:18:50;101901.00;;;9.70
58929;BMP180;44713;53.378;10.022;2023-05-07T05:21:18;101892.00;;;9.70
58929;BMP180;44713;53.378;10.022;2023-05-07T05:23:46;101899.00;;;9.70
58929;BMP180;44713;53.378;10.022;2023-05-07T05:26:13;101902.00;;;9.70
58929;BMP180;44713;53.378;10.022;2023-05-07T05:28:38;101902.00;;;9.70
58929;BMP180;44713;53.378;10.022;2023-05-07T05:31:04;101897.00;;;9.70
58929;BMP180;44713;53.378;10.022;2023-05-07T05:33:33;101900.00;;;9.70
58929;BMP180;44713;53.378;10.022;2023-05-07T05:36:02;101900.00;;;9.70
58929;BMP180;44713;53.378;10.022;2023-05-07T05:38:28;101903.00;;;9.70
58929;BMP180;44713;53.378;10.022;2023-05-07T05:40:54;101914.00;;;9.70
58929;BMP180;44713;53.378;10.022;2023-05-07T05:43:19;101905.00;;;9.70
58929;BMP180;44713;53.378;10.022;2023-05-07T05:45:45;101917.00;;;9.80
58929;BMP180;44713;53.378;10.022;2023-05-07T05:48:10;101918.00;;;9.90
58929;BMP180;44713;53.378;10.022;2023-05-07T05:50:37;101923.00;;;9.90
58929;BMP180;44713;53.378;10.022;2023-05-07T05:53:03;101934.00;;;9.90
58929;BMP180;44713;53.378;10.022;2023-05-07T05:55:29;101923.00;;;9.90
58929;BMP180;44713;53.378;10.022;2023-05-07T05:57:55;101932.00;;;9.90
58929;BMP180;44713;53.378;10.022;2023-05-07T06:00:22;101932.00;;;9.90
58929;BMP180;44713;53.378;10.022;2023-05-07T06:02:55;101938.00;;;9.90
58929;BMP180;44713;53.378;10.022;2023-05-07T06:05:24;101937.00;;;9.90
58929;BMP180;44713;53.378;10.022;2023-05-07T06:07:52;101945.00;;;9.90
58929;BMP180;44713;53.378;10.022;2023-05-07T06:10:18;101945.00;;;9.90
58929;BMP180;44713;53.378;10.022;2023-05-07T06:12:43;101937.00;;;9.90
58929;BMP180;44713;53.378;10.022;2023-05-07T06:15:14;101942.00;;;10.00
58929;BMP180;44713;53.378;10.022;2023-05-07T06:17:43;101934.00;;;10.00
58929;BMP180;44713;53.378;10.022;2023-05-07T06:20:10;101938.00;;;10.00
58929;BMP180;44713;53.378;10.022;2023-05-07T06:22:35;101932.00;;;10.10
58929;BMP180;44713;53.378;10.022;2023-05-07T06:25:02;101938.00;;;10.00
58929;BMP180;44713;53.378;10.022;2023-05-07T06:27:28;101936.00;;;10.00
58929;BMP180;44713;53.378;10.022;2023-05-07T06:29:53;101929.00;;;10.10
58929;BMP180;44713;53.378;10.022;2023-05-07T06:32:19;101941.00;;;10.10
58929;BMP180;44713;53.378;10.022;2023-05-07T06:34:45;101937.00;;;10.10
58929;BMP180;44713;53.378;10.022;2023-05-07T06:37:12;101940.00;;;10.20
58929;BMP180;44713;53.378;10.022;2023-05-07T06:39:53;101944.00;;;10.20
58929;BMP180;44713;53.378;10.022;2023-05-07T06:42:19;101938.00;;;10.20
58929;BMP180;44713;53.378;10.022;2023-05-07T06:44:46;101941.00;;;10.20
58929;BMP180;44713;53.378;10.022;2023-05-07T06:47:14;101945.00;;;10.20
58929;BMP180;44713;53.378;10.022;2023-05-07T06:49:40;101944.00;;;10.30
58929;BMP180;44713;53.378;10.022;2023-05-07T06:52:05;101947.00;;;10.30
58929;BMP180;44713;53.378;10.022;2023-05-07T06:54:31;101942.00;;;10.30
58929;BMP180;44713;53.378;10.022;2023-05-07T06:56:57;101947.00;;;10.30
58929;BMP180;44713;53.378;10.022;2023-05-07T06:59:25;101947.00;;;10.40
58929;BMP180;44713;53.378;10.022;2023-05-07T07:01:51;101948.00;;;10.40
58929;BMP180;44713;53.378;10.022;2023-05-07T07:04:16;101943.00;;;10.40
58929;BMP180;44713;53.378;10.022;2023-05-07T07:06:45;101942.00;;;10.40
58929;BMP180;44713;53.378;10.022;2023-05-07T07:09:12;101948.00;;;10.50
58929;BMP180;44713;53.378;10.022;2023-05-07T07:11:37;101948.00;;;10.60
58929;BMP180;44713;53.378;10.022;2023-05-07T07:14:04;101936.00;;;10.60
58929;BMP180;44713;53.378;10.022;2023-05-07T07:16:33;101945.00;;;10.60
58929;BMP180;44713;53.378;10.022;2023-05-07T07:18:59;101943.00;;;10.60
58929;BMP180;44713;53.378;10.022;2023-05-07T07:21:25;101942.00;;;10.70
58929;BMP180;44713;53.378;10.022;2023-05-07T07:23:51;101943.00;;;10.70
58929;BMP180;44713;53.378;10.022;2023-05-07T07:26:19;101934.00;;;10.70
58929;BMP180;44713;53.378;10.022;2023-05-07T07:28:45;101936.00;;;10.80
58929;BMP180;44713;53.378;10.022;2023-05-07T07:31:12;101935.00;;;10.80
58929;BMP180;44713;53.378;10.022;2023-05-07T07:33:38;101938.00;;;10.90
58929;BMP180;44713;53.378;10.022;2023-05-07T07:36:05;101941.00;;;10.90
58929;BMP180;44713;53.378;10.022;2023-05-07T07:38:31;101935.00;;;10.90
58929;BMP180;44713;53.378;10.022;2023-05-07T07:40:56;101937.00;;;10.90
58929;BMP180;44713;53.378;10.022;2023-05-07T07:43:23;101951.00;;;10.90
58929;BMP180;44713;53.378;10.022;2023-05-07T07:45:48;101945.00;;;10.90
58929;BMP180;44713;53.378;10.022;2023-05-07T07:48:14;101942.00;;;11.00
58929;BMP180;44713;53.378;10.022;2023-05-07T07:50:39;101947.00;;;11.00
58929;BMP180;44713;53.378;10.022;2023-05-07T07:53:05;101954.00;;;11.00
58929;BMP180;44713;53.378;10.022;2023-05-07T07:55:31;101950.00;;;11.10
58929;BMP180;44713;53.378;10.022;2023-05-07T07:57:58;101949.00;;;11.10
58929;BMP180;44713;53.378;10.022;2023-05-07T08:00:23;101958.00;;;11.10
58929;BMP180;44713;53.378;10.022;2023-05-07T08:02:53;101960.00;;;11.10
58929;BMP180;44713;53.378;10.022;2023-05-07T08:05:24;101960.00;;;11.00
58929;BMP180;44713;53.378;10.022;2023-05-07T08:07:51;101960.00;;;11.10
58929;BMP180;44713;53.378;10.022;2023-05-07T08:10:21;101957.00;;;11.10
58929;BMP180;44713;53.378;10.022;2023-05-07T08:12:49;101964.00;;;11.20
58929;BMP180;44713;53.378;10.022;2023-05-07T08:15:15;101957.00;;;11.20
58929;BMP180;44713;53.378;10.022;2023-05-07T08:17:41;101971.00;;;11.30
58929;BMP180;44713;53.378;10.022;2023-05-07T08:20:07;101964.00;;;11.30
58929;BMP180;44713;53.378;10.022;2023-05-07T08:22:36;101959.00;;;11.30
58929;BMP180;44713;53.378;10.022;2023-05-07T08:25:03;101965.00;;;11.30
58929;BMP180;44713;53.378;10.022;2023-05-07T08:27:29;101969.00;;;11.30
58929;BMP180;44713;53.378;10.022;2023-05-07T08:29:55;101965.00;;;11.40
58929;BMP180;44713;53.378;10.022;2023-05-07T08:32:21;101973.00;;;11.40
58929;BMP180;44713;53.378;10.022;2023-05-07T08:34:48;101971.00;;;11.50
58929;BMP180;44713;53.378;10.022;2023-05-07T08:37:13;101972.00;;;11.50
58929;BMP180;44713;53.378;10.022;2023-05-07T08:39:39;101979.00;;;11.60
58929;BMP180;44713;53.378;10.022;2023-05-07T08:42:12;101973.00;;;11.60
58929;BMP180;44713;53.378;10.022;2023-05-07T08:44:40;101980.00;;;11.70
58929;BMP180;44713;53.378;10.022;2023-05-07T08:47:07;101989.00;;;11.70
58929;BMP180;44713;53.378;10.022;2023-05-07T08:49:33;101994.00;;;11.80
58929;BMP180;44713;53.378;10.022;2023-05-07T08:52:00;101987.00;;;11.90
58929;BMP180;44713;53.378;10.022;2023-05-07T08:54:27;101990.00;;;11.90
58929;BMP180;44713;53.378;10.022;2023-05-07T08:56:53;101983.00;;;11.90
58929;BMP180;44713;53.378;10.022;2023-05-07T08:59:19;101985.00;;;11.90
58929;BMP180;44713;53.378;10.022;2023-05-07T09:01:45;101990.00;;;11.90
58929;BMP180;44713;53.378;10.022;2023-05-07T09:04:11;101980.00;;;12.00
58929;BMP180;44713;53.378;10.022;2023-05-07T09:06:38;101992.00;;;12.00
58929;BMP180;44713;53.378;10.022;2023-05-07T09:09:08;101993.00;;;12.20
58929;BMP180;44713;53.378;10.022;2023-05-07T09:11:34;101991.00;;;12.20
58929;BMP180;44713;53.378;10.022;2023-05-07T09:14:00;101996.00;;;12.20
58929;BMP180;44713;53.378;10.022;2023-05-07T09:16:29;102001.00;;;12.20
58929;BMP180;44713;53.378;10.022;2023-05-07T09:18:58;102003.00;;;12.10
58929;BMP180;44713;53.378;10.022;2023-05-07T09:21:25;102001.00;;;12.20
58929;BMP180;44713;53.378;10.022;2023-05-07T09:23:55;102002.00;;;12.20
58929;BMP180;44713;53.378;10.022;2023-05-07T09:26:24;102006.00;;;12.20
58929;BMP180;44713;53.378;10.022;2023-05-07T09:28:51;102007.00;;;12.30
58929;BMP180;44713;53.378;10.022;2023-05-07T09:31:17;102006.00;;;12.30
58929;BMP180;44713;53.378;10.022;2023-05-07T09:33:43;101997.00;;;12.40
58929;BMP180;44713;53.378;10.022;2023-05-07T09:36:10;102002.00;;;12.40
58929;BMP180;44713;53.378;10.022;2023-05-07T09:38:38;101994.00;;;12.60
58929;BMP180;44713;53.378;10.022;2023-05-07T09:41:05;102000.00;;;12.60
58929;BMP180;44713;53.378;10.022;2023-05-07T09:43:35;102007.00;;;12.50
58929;BMP180;44713;53.378;10.022;2023-05-07T09:46:15;102004.00;;;12.50
58929;BMP180;44713;53.378;10.022;2023-05-07T09:48:48;102008.00;;;12.50
58929;BMP180;44713;53.378;10.022;2023-05-07T09:51:33;102009.00;;;12.50
58929;BMP180;44713;53.378;10.022;2023-05-07T09:54:00;102014.00;;;12.60
58929;BMP180;44713;53.378;10.022;2023-05-07T09:56:29;102009.00;;;12.60
58929;BMP180;44713;53.378;10.022;2023-05-07T09:58:57;102009.00;;;12.60
58929;BMP180;44713;53.378;10.022;2023-05-07T10:01:25;102008.00;;;12.70
58929;BMP180;44713;53.378;10.022;2023-05-07T10:03:51;102012.00;;;12.70
58929;BMP180;44713;53.378;10.022;2023-05-07T10:06:20;102006.00;;;12.80
58929;BMP180;44713;53.378;10.022;2023-05-07T10:08:45;102009.00;;;12.90
58929;BMP180;44713;53.378;10.022;2023-05-07T10:11:11;102002.00;;;13.00
58929;BMP180;44713;53.378;10.022;2023-05-07T10:13:37;102008.00;;;12.90
58929;BMP180;44713;53.378;10.022;2023-05-07T10:16:04;102003.00;;;12.80
58929;BMP180;44713;53.378;10.022;2023-05-07T10:18:36;102012.00;;;12.90
58929;BMP180;44713;53.378;10.022;2023-05-07T10:21:20;102005.00;;;12.90
58929;BMP180;44713;53.378;10.022;2023-05-07T10:23:56;102011.00;;;12.90
58929;BMP180;44713;53.378;10.022;2023-05-07T10:26:24;102006.00;;;13.00
58929;BMP180;44713;53.378;10.022;2023-05-07T10:28:56;102007.00;;;13.00
58929;BMP180;44713;53.378;10.022;2023-05-07T10:31:48;102005.00;;;13.00
58929;BMP180;44713;53.378;10.022;2023-05-07T10:34:21;102009.00;;;13.10
58929;BMP180;44713;53.378;10.022;2023-05-07T10:36:48;102010.00;;;13.10
58929;BMP180;44713;53.378;10.022;2023-05-07T10:39:15;102004.00;;;13.10
58929;BMP180;44713;53.378;10.022;2023-05-07T10:41:41;102010.00;;;13.10
58929;BMP180;44713;53.378;10.022;2023-05-07T10:44:08;102014.00;;;13.10
58929;BMP180;44713;53.378;10.022;2023-05-07T10:46:35;102011.00;;;13.30
58929;BMP180;44713;53.378;10.022;2023-05-07T10:49:15;102008.00;;;13.30
58929;BMP180;44713;53.378;10.022;2023-05-07T10:52:18;102014.00;;;13.40
58929;BMP180;44713;53.378;10.022;2023-05-07T10:55:19;102015.00;;;13.30
58929;BMP180;44713;53.378;10.022;2023-05-07T10:58:23;102013.00;;;13.30
58929;BMP180;44713;53.378;10.022;2023-05-07T11:01:01;102014.00;;;13.20
58929;BMP180;44713;53.378;10.022;2023-05-07T11:04:12;102014.00;;;13.40
58929;BMP180;44713;53.378;10.022;2023-05-07T11:06:38;102009.00;;;13.60
58929;BMP180;44713;53.378;10.022;2023-05-07T11:09:08;102015.00;;;13.70
58929;BMP180;44713;53.378;10.022;2023-05-07T11:11:45;102015.00;;;13.80
58929;BMP180;44713;53.378;10.022;2023-05-07T11:17:09;102020.00;;;14.00
58929;BMP180;44713;53.378;10.022;2023-05-07T11:19:56;102021.00;;;14.10
58929;BMP180;44713;53.378;10.022;2023-05-07T11:22:41;102011.00;;;14.20
58929;BMP180;44713;53.378;10.022;2023-05-07T11:25:33;102015.00;;;14.60
58929;BMP180;44713;53.378;10.022;2023-05-07T11:28:20;102014.00;;;14.60
58929;BMP180;44713;53.378;10.022;2023-05-07T11:30:54;102013.00;;;14.60
58929;BMP180;44713;53.378;10.022;2023-05-07T11:33:22;102011.00;;;14.70
58929;BMP180;44713;53.378;10.022;2023-05-07T11:35:50;102009.00;;;14.70
58929;BMP180;44713;53.378;10.022;2023-05-07T11:38:18;101999.00;;;14.70
58929;BMP180;44713;53.378;10.022;2023-05-07T11:40:54;102002.00;;;14.70
58929;BMP180;44713;53.378;10.022;2023-05-07T11:43:20;102008.00;;;14.80
58929;BMP180;44713;53.378;10.022;2023-05-07T11:45:46;102010.00;;;14.80
58929;BMP180;44713;53.378;10.022;2023-05-07T11:48:13;102012.00;;;14.80
58929;BMP180;44713;53.378;10.022;2023-05-07T11:51:01;102010.00;;;14.70
58929;BMP180;44713;53.378;10.022;2023-05-07T11:53:33;102005.00;;;14.80
58929;BMP180;44713;53.378;10.022;2023-05-07T11:56:00;102005.00;;;15.00
58929;BMP180;44713;53.378;10.022;2023-05-07T11:58:25;102003.00;;;15.30
58929;BMP180;44713;53.378;10.022;2023-05-07T12:00:51;102002.00;;;15.40
58929;BMP180;44713;53.378;10.022;2023-05-07T12:03:17;102001.00;;;15.50
58929;BMP180;44713;53.378;10.022;2023-05-07T12:05:44;102002.00;;;15.60
58929;BMP180;44713;53.378;10.022;2023-05-07T12:08:14;101998.00;;;16.00
58929;BMP180;44713;53.378;10.022;2023-05-07T12:10:41;101994.00;;;16.10
58929;BMP180;44713;53.378;10.022;2023-05-07T12:13:14;101999.00;;;16.40
58929;BMP180;44713;53.378;10.022;2023-05-07T12:15:40;101993.00;;;16.60
58929;BMP180;44713;53.378;10.022;2023-05-07T12:18:06;101992.00;;;16.40
58929;BMP180;44713;53.378;10.022;2023-05-07T12:20:31;101997.00;;;16.30
58929;BMP180;44713;53.378;10.022;2023-05-07T12:22:56;101998.00;;;16.40
58929;BMP180;44713;53.378;10.022;2023-05-07T12:25:22;101991.00;;;16.90
58929;BMP180;44713;53.378;10.022;2023-05-07T12:27:52;101993.00;;;17.00
58929;BMP180;44713;53.378;10.022;2023-05-07T12:30:17;101994.00;;;17.20
58929;BMP180;44713;53.378;10.022;2023-05-07T12:32:44;101992.00;;;17.30
58929;BMP180;44713;53.378;10.022;2023-05-07T12:35:10;101995.00;;;17.30
58929;BMP180;44713;53.378;10.022;2023-05-07T12:37:35;101992.00;;;17.20
58929;BMP180;44713;53.378;10.022;2023-05-07T12:40:08;101987.00;;;17.10
58929;BMP180;44713;53.378;10.022;2023-05-07T12:42:38;101994.00;;;17.00
58929;BMP180;44713;53.378;10.022;2023-05-07T12:45:13;101997.00;;;17.20
58929;BMP180;44713;53.378;10.022;2023-05-07T12:47:44;101994.00;;;17.30
58929;BMP180;44713;53.378;10.022;2023-05-07T12:50:10;101990.00;;;17.50
58929;BMP180;44713;53.378;10.022;2023-05-07T12:52:35;101986.00;;;17.60
58929;BMP180;44713;53.378;10.022;2023-05-07T12:55:05;101986.00;;;17.40
58929;BMP180;44713;53.378;10.022;2023-05-07T12:57:38;101994.00;;;17.30
58929;BMP180;44713;53.378;10.022;2023-05-07T13:00:04;101988.00;;;17.20
58929;BMP180;44713;53.378;10.022;2023-05-07T13:02:47;101989.00;;;17.30
58929;BMP180;44713;53.378;10.022;2023-05-07T13:05:13;101990.00;;;17.60
58929;BMP180;44713;53.378;10.022;2023-05-07T13:07:39;101991.00;;;17.60
58929;BMP180;44713;53.378;10.022;2023-05-07T13:10:06;101979.00;;;17.70
58929;BMP180;44713;53.378;10.022;2023-05-07T13:12:32;101980.00;;;17.70
58929;BMP180;44713;53.378;10.022;2023-05-07T13:14:57;101985.00;;;17.70
58929;BMP180;44713;53.378;10.022;2023-05-07T13:17:22;101975.00;;;17.70
58929;BMP180;44713;53.378;10.022;2023-05-07T13:19:48;101981.00;;;17.90
58929;BMP180;44713;53.378;10.022;2023-05-07T13:22:13;101985.00;;;18.00
58929;BMP180;44713;53.378;10.022;2023-05-07T13:24:38;101975.00;;;17.90
58929;BMP180;44713;53.378;10.022;2023-05-07T13:27:06;101989.00;;;17.90
58929;BMP180;44713;53.378;10.022;2023-05-07T13:29:32;101985.00;;;18.00
58929;BMP180;44713;53.378;10.022;2023-05-07T13:31:57;101991.00;;;18.00
58929;BMP180;44713;53.378;10.022;2023-05-07T13:34:22;101981.00;;;18.00
58929;BMP180;44713;53.378;10.022;2023-05-07T13:36:48;101974.00;;;18.00
58929;BMP180;44713;53.378;10.022;2023-05-07T13:39:13;101972.00;;;18.10
58929;BMP180;44713;53.378;10.022;2023-05-07T13:41:39;101983.00;;;18.10
58929;BMP180;44713;53.378;10.022;2023-05-07T13:44:04;101977.00;;;18.20
58929;BMP180;44713;53.378;10.022;2023-05-07T13:46:29;101971.00;;;18.50
58929;BMP180;44713;53.378;10.022;2023-05-07T13:48:55;101977.00;;;18.80
58929;BMP180;44713;53.378;10.022;2023-05-07T13:51:21;101959.00;;;18.80
58929;BMP180;44713;53.378;10.022;2023-05-07T13:53:47;101964.00;;;18.90
58929;BMP180;44713;53.378;10.022;2023-05-07T13:56:12;101962.00;;;19.00